sensor_id;sensor_type;location;lat;lon;timestamp;P1;durP1;ratioP1;P2;durP2;ratioP2
58360;SDS011;44164;44.954;10.068;2024-01-30T00:02:12;5.30;;;4.63;;
58360;SDS011;44164;44.954;10.068;2024-01-30T00:04:39;5.65;;;5.07;;
58360;SDS011;44164;44.954;10.068;2024-01-30T00:07:05;5.88;;;5.15;;
58360;SDS011;44164;44.954;10.068;2024-01-30T00:09:31;6.13;;;5.18;;
58360;SDS011;44164;44.954;10.068;2024-01-30T00:11:57;5.32;;;4.70;;
58360;SDS011;44164;44.954;10.068;2024-01-30T00:14:23;5.72;;;4.78;;
58360;SDS011;44164;44.954;10.068;2024-01-30T00:16:50;5.22;;;4.63;;
58360;SDS011;44164;44.954;10.068;2024-01-30T00:19:17;5.38;;;4.72;;
58360;SDS011;44164;44.954;10.068;2024-01-30T00:21:43;5.40;;;4.85;;
58360;SDS011;44164;44.954;10.068;2024-01-30T00:24:09;4.55;;;4.10;;
58360;SDS011;44164;44.954;10.068;2024-01-30T00:26:35;5.65;;;5.05;;
58360;SDS011;44164;44.954;10.068;2024-01-30T00:29:01;5.18;;;4.40;;
58360;SDS011;44164;44.954;10.068;2024-01-30T00:31:28;4.97;;;4.47;;
58360;SDS011;44164;44.954;10.068;2024-01-30T00:33:54;4.85;;;4.35;;
58360;SDS011;44164;44.954;10.068;2024-01-30T00:36:20;5.47;;;4.97;;
58360;SDS011;44164;44.954;10.068;2024-01-30T00:38:47;5.57;;;4.82;;
58360;SDS011;44164;44.954;10.068;2024-01-30T00:41:13;6.07;;;4.75;;
58360;SDS011;44164;44.954;10.068;2024-01-30T00:43:39;5.80;;;5.00;;
58360;SDS011;44164;44.954;10.068;2024-01-30T00:46:05;5.18;;;4.68;;
58360;SDS011;44164;44.954;10.068;2024-01-30T00:48:31;4.65;;;3.92;;
58360;SDS011;44164;44.954;10.068;2024-01-30T00:50:58;5.18;;;4.68;;
58360;SDS011;44164;44.954;10.068;2024-01-30T00:53:24;4.35;;;3.95;;
58360;SDS011;44164;44.954;10.068;2024-01-30T00:55:50;4.93;;;4.07;;
58360;SDS011;44164;44.954;10.068;2024-01-30T00:58:16;5.45;;;4.85;;
58360;SDS011;44164;44.954;10.068;2024-01-30T01:03:10;4.95;;;4.32;;
58360;SDS011;44164;44.954;10.068;2024-01-30T01:05:37;5.47;;;4.60;;
58360;SDS011;44164;44.954;10.068;2024-01-30T01:08:03;5.22;;;4.72;;
58360;SDS011;44164;44.954;10.068;2024-01-30T01:10:29;4.55;;;4.15;;
58360;SDS011;44164;44.954;10.068;2024-01-30T01:12:55;5.43;;;4.28;;
58360;SDS011;44164;44.954;10.068;2024-01-30T01:15:21;4.90;;;4.07;;
58360;SDS011;44164;44.954;10.068;2024-01-30T01:17:47;4.70;;;4.22;;
58360;SDS011;44164;44.954;10.068;2024-01-30T01:20:14;4.95;;;4.10;;
58360;SDS011;44164;44.954;10.068;2024-01-30T01:22:40;3.88;;;3.55;;
58360;SDS011;44164;44.954;10.068;2024-01-30T01:25:07;4.55;;;4.15;;
58360;SDS011;44164;44.954;10.068;2024-01-30T01:27:34;4.75;;;4.25;;
58360;SDS011;44164;44.954;10.068;2024-01-30T01:30:04;5.07;;;4.57;;
58360;SDS011;44164;44.954;10.068;2024-01-30T01:32:31;4.63;;;3.83;;
58360;SDS011;44164;44.954;10.068;2024-01-30T01:34:57;4.22;;;3.83;;
58360;SDS011;44164;44.954;10.068;2024-01-30T01:37:23;4.28;;;3.78;;
58360;SDS011;44164;44.954;10.068;2024-01-30T01:39:52;4.88;;;4.38;;
58360;SDS011;44164;44.954;10.068;2024-01-30T01:42:18;4.22;;;3.83;;
58360;SDS011;44164;44.954;10.068;2024-01-30T01:44:44;4.90;;;3.88;;
58360;SDS011;44164;44.954;10.068;2024-01-30T01:47:10;4.45;;;3.75;;
58360;SDS011;44164;44.954;10.068;2024-01-30T01:49:37;3.90;;;3.50;;
58360;SDS011;44164;44.954;10.068;2024-01-30T01:52:03;4.53;;;4.13;;
58360;SDS011;44164;44.954;10.068;2024-01-30T01:54:30;4.55;;;4.05;;
58360;SDS011;44164;44.954;10.068;2024-01-30T01:56:56;3.85;;;3.45;;
58360;SDS011;44164;44.954;10.068;2024-01-30T01:59:22;4.25;;;3.85;;
58360;SDS011;44164;44.954;10.068;2024-01-30T02:01:49;5.00;;;3.95;;
58360;SDS011;44164;44.954;10.068;2024-01-30T02:04:16;4.47;;;4.05;;
58360;SDS011;44164;44.954;10.068;2024-01-30T02:06:42;4.43;;;3.92;;
58360;SDS011;44164;44.954;10.068;2024-01-30T02:09:09;4.00;;;3.60;;
58360;SDS011;44164;44.954;10.068;2024-01-30T02:11:35;4.05;;;3.65;;
58360;SDS011;44164;44.954;10.068;2024-01-30T02:14:03;4.47;;;3.80;;
58360;SDS011;44164;44.954;10.068;2024-01-30T02:16:30;4.18;;;3.78;;
58360;SDS011;44164;44.954;10.068;2024-01-30T02:18:56;4.22;;;3.83;;
58360;SDS011;44164;44.954;10.068;2024-01-30T02:21:22;3.90;;;3.50;;
58360;SDS011;44164;44.954;10.068;2024-01-30T02:23:49;5.40;;;4.90;;
58360;SDS011;44164;44.954;10.068;2024-01-30T02:26:16;4.38;;;3.75;;
58360;SDS011;44164;44.954;10.068;2024-01-30T02:28:42;4.15;;;3.75;;
58360;SDS011;44164;44.954;10.068;2024-01-30T02:31:09;4.15;;;3.75;;
58360;SDS011;44164;44.954;10.068;2024-01-30T02:33:35;3.85;;;3.50;;
58360;SDS011;44164;44.954;10.068;2024-01-30T02:36:01;4.75;;;4.35;;
58360;SDS011;44164;44.954;10.068;2024-01-30T02:38:27;6.40;;;4.35;;
58360;SDS011;44164;44.954;10.068;2024-01-30T02:40:54;4.72;;;4.22;;
58360;SDS011;44164;44.954;10.068;2024-01-30T02:43:22;4.10;;;3.70;;
58360;SDS011;44164;44.954;10.068;2024-01-30T02:45:48;4.88;;;3.42;;
58360;SDS011;44164;44.954;10.068;2024-01-30T02:48:14;4.07;;;3.70;;
58360;SDS011;44164;44.954;10.068;2024-01-30T02:50:40;4.78;;;4.28;;
58360;SDS011;44164;44.954;10.068;2024-01-30T02:53:06;4.13;;;3.75;;
58360;SDS011;44164;44.954;10.068;2024-01-30T02:55:33;3.88;;;3.47;;
58360;SDS011;44164;44.954;10.068;2024-01-30T02:57:59;3.88;;;3.42;;
58360;SDS011;44164;44.954;10.068;2024-01-30T03:00:25;4.28;;;3.88;;
58360;SDS011;44164;44.954;10.068;2024-01-30T03:02:51;3.95;;;3.55;;
58360;SDS011;44164;44.954;10.068;2024-01-30T03:05:17;4.05;;;3.60;;
58360;SDS011;44164;44.954;10.068;2024-01-30T03:07:43;3.90;;;3.53;;
58360;SDS011;44164;44.954;10.068;2024-01-30T03:10:10;4.07;;;3.67;;
58360;SDS011;44164;44.954;10.068;2024-01-30T03:12:36;3.90;;;3.55;;
58360;SDS011;44164;44.954;10.068;2024-01-30T03:15:02;4.40;;;4.00;;
58360;SDS011;44164;44.954;10.068;2024-01-30T03:17:28;4.10;;;3.70;;
58360;SDS011;44164;44.954;10.068;2024-01-30T03:19:54;3.60;;;3.22;;
58360;SDS011;44164;44.954;10.068;2024-01-30T03:22:20;4.65;;;3.72;;
58360;SDS011;44164;44.954;10.068;2024-01-30T03:24:46;3.97;;;3.47;;
58360;SDS011;44164;44.954;10.068;2024-01-30T03:27:12;4.22;;;3.83;;
58360;SDS011;44164;44.954;10.068;2024-01-30T03:29:39;4.40;;;4.00;;
58360;SDS011;44164;44.954;10.068;2024-01-30T03:32:05;4.03;;;3.63;;
58360;SDS011;44164;44.954;10.068;2024-01-30T03:34:31;3.83;;;3.42;;
58360;SDS011;44164;44.954;10.068;2024-01-30T03:36:57;3.65;;;3.25;;
58360;SDS011;44164;44.954;10.068;2024-01-30T03:39:23;3.53;;;3.22;;
58360;SDS011;44164;44.954;10.068;2024-01-30T03:41:50;4.20;;;3.80;;
58360;SDS011;44164;44.954;10.068;2024-01-30T03:44:16;4.20;;;3.80;;
58360;SDS011;44164;44.954;10.068;2024-01-30T03:46:42;3.75;;;3.38;;
58360;SDS011;44164;44.954;10.068;2024-01-30T03:49:09;4.05;;;3.65;;
58360;SDS011;44164;44.954;10.068;2024-01-30T03:51:35;3.72;;;3.33;;
58360;SDS011;44164;44.954;10.068;2024-01-30T03:54:01;3.55;;;3.25;;
58360;SDS011;44164;44.954;10.068;2024-01-30T03:56:27;3.85;;;3.45;;
58360;SDS011;44164;44.954;10.068;2024-01-30T03:58:54;3.90;;;3.50;;
58360;SDS011;44164;44.954;10.068;2024-01-30T04:01:20;3.97;;;3.58;;
58360;SDS011;44164;44.954;10.068;2024-01-30T04:03:46;3.88;;;3.38;;
58360;SDS011;44164;44.954;10.068;2024-01-30T04:06:12;4.03;;;3.63;;
58360;SDS011;44164;44.954;10.068;2024-01-30T04:08:38;3.90;;;3.50;;
58360;SDS011;44164;44.954;10.068;2024-01-30T04:11:05;4.25;;;3.58;;
58360;SDS011;44164;44.954;10.068;2024-01-30T04:13:31;3.60;;;3.30;;
58360;SDS011;44164;44.954;10.068;2024-01-30T04:16:01;3.50;;;3.20;;
58360;SDS011;44164;44.954;10.068;2024-01-30T04:18:28;3.70;;;3.40;;
58360;SDS011;44164;44.954;10.068;2024-01-30T04:20:55;3.85;;;3.45;;
58360;SDS011;44164;44.954;10.068;2024-01-30T04:23:21;3.72;;;3.42;;
58360;SDS011;44164;44.954;10.068;2024-01-30T04:25:47;4.10;;;3.70;;
58360;SDS011;44164;44.954;10.068;2024-01-30T04:28:13;3.70;;;3.30;;
58360;SDS011;44164;44.954;10.068;2024-01-30T04:30:40;3.70;;;3.35;;
58360;SDS011;44164;44.954;10.068;2024-01-30T04:33:06;4.07;;;3.67;;
58360;SDS011;44164;44.954;10.068;2024-01-30T04:35:32;4.00;;;3.60;;
58360;SDS011;44164;44.954;10.068;2024-01-30T04:37:58;4.05;;;3.65;;
58360;SDS011;44164;44.954;10.068;2024-01-30T04:40:24;4.10;;;3.70;;
58360;SDS011;44164;44.954;10.068;2024-01-30T04:42:50;4.03;;;3.63;;
58360;SDS011;44164;44.954;10.068;2024-01-30T04:45:17;4.50;;;4.10;;
58360;SDS011;44164;44.954;10.068;2024-01-30T04:47:43;4.35;;;3.83;;
58360;SDS011;44164;44.954;10.068;2024-01-30T04:50:09;4.13;;;3.67;;
58360;SDS011;44164;44.954;10.068;2024-01-30T04:52:35;4.55;;;3.58;;
58360;SDS011;44164;44.954;10.068;2024-01-30T04:55:02;3.83;;;3.42;;
58360;SDS011;44164;44.954;10.068;2024-01-30T04:57:28;3.28;;;2.92;;
58360;SDS011;44164;44.954;10.068;2024-01-30T04:59:54;4.18;;;3.63;;
58360;SDS011;44164;44.954;10.068;2024-01-30T05:02:20;3.45;;;3.15;;
58360;SDS011;44164;44.954;10.068;2024-01-30T05:04:47;3.83;;;3.47;;
58360;SDS011;44164;44.954;10.068;2024-01-30T05:07:13;3.72;;;3.30;;
58360;SDS011;44164;44.954;10.068;2024-01-30T05:09:39;3.35;;;3.05;;
58360;SDS011;44164;44.954;10.068;2024-01-30T05:12:05;4.45;;;4.03;;
58360;SDS011;44164;44.954;10.068;2024-01-30T05:14:32;3.75;;;3.35;;
58360;SDS011;44164;44.954;10.068;2024-01-30T05:16:58;3.53;;;3.22;;
58360;SDS011;44164;44.954;10.068;2024-01-30T05:19:24;4.03;;;3.45;;
58360;SDS011;44164;44.954;10.068;2024-01-30T05:21:50;3.55;;;3.15;;
58360;SDS011;44164;44.954;10.068;2024-01-30T05:24:17;3.60;;;3.25;;
58360;SDS011;44164;44.954;10.068;2024-01-30T05:26:43;3.97;;;3.58;;
58360;SDS011;44164;44.954;10.068;2024-01-30T05:29:09;3.75;;;3.17;;
58360;SDS011;44164;44.954;10.068;2024-01-30T05:31:35;3.50;;;3.20;;
58360;SDS011;44164;44.954;10.068;2024-01-30T05:34:01;3.88;;;3.42;;
58360;SDS011;44164;44.954;10.068;2024-01-30T05:36:27;3.65;;;3.35;;
58360;SDS011;44164;44.954;10.068;2024-01-30T05:38:53;3.78;;;3.38;;
58360;SDS011;44164;44.954;10.068;2024-01-30T05:41:19;3.90;;;3.50;;
58360;SDS011;44164;44.954;10.068;2024-01-30T05:43:46;3.88;;;3.45;;
58360;SDS011;44164;44.954;10.068;2024-01-30T05:46:13;3.42;;;3.00;;
58360;SDS011;44164;44.954;10.068;2024-01-30T05:48:39;3.83;;;3.45;;
58360;SDS011;44164;44.954;10.068;2024-01-30T05:51:06;3.40;;;2.95;;
58360;SDS011;44164;44.954;10.068;2024-01-30T05:53:33;4.63;;;3.70;;
58360;SDS011;44164;44.954;10.068;2024-01-30T05:56:00;3.55;;;3.17;;
58360;SDS011;44164;44.954;10.068;2024-01-30T05:58:27;4.13;;;3.72;;
58360;SDS011;44164;44.954;10.068;2024-01-30T06:00:54;3.90;;;3.50;;
58360;SDS011;44164;44.954;10.068;2024-01-30T06:03:20;3.33;;;3.03;;
58360;SDS011;44164;44.954;10.068;2024-01-30T06:05:47;3.85;;;3.53;;
58360;SDS011;44164;44.954;10.068;2024-01-30T06:08:13;4.20;;;3.78;;
58360;SDS011;44164;44.954;10.068;2024-01-30T06:10:39;3.85;;;3.42;;
58360;SDS011;44164;44.954;10.068;2024-01-30T06:13:06;4.30;;;3.78;;
58360;SDS011;44164;44.954;10.068;2024-01-30T06:15:32;3.63;;;3.33;;
58360;SDS011;44164;44.954;10.068;2024-01-30T06:17:58;3.92;;;3.53;;
58360;SDS011;44164;44.954;10.068;2024-01-30T06:20:25;6.60;;;3.80;;
58360;SDS011;44164;44.954;10.068;2024-01-30T06:22:51;4.18;;;3.60;;
58360;SDS011;44164;44.954;10.068;2024-01-30T06:25:17;3.88;;;3.38;;
58360;SDS011;44164;44.954;10.068;2024-01-30T06:27:43;3.58;;;3.28;;
58360;SDS011;44164;44.954;10.068;2024-01-30T06:30:10;18.58;;;16.67;;
58360;SDS011;44164;44.954;10.068;2024-01-30T06:32:36;7.97;;;7.18;;
58360;SDS011;44164;44.954;10.068;2024-01-30T06:35:02;6.40;;;5.80;;
58360;SDS011;44164;44.954;10.068;2024-01-30T06:37:29;6.40;;;5.80;;
58360;SDS011;44164;44.954;10.068;2024-01-30T06:39:55;5.50;;;5.00;;
58360;SDS011;44164;44.954;10.068;2024-01-30T06:42:21;5.82;;;5.28;;
58360;SDS011;44164;44.954;10.068;2024-01-30T06:44:47;6.18;;;5.35;;
58360;SDS011;44164;44.954;10.068;2024-01-30T06:47:13;8.88;;;5.93;;
58360;SDS011;44164;44.954;10.068;2024-01-30T06:49:40;8.95;;;6.25;;
58360;SDS011;44164;44.954;10.068;2024-01-30T06:52:08;6.75;;;6.07;;
58360;SDS011;44164;44.954;10.068;2024-01-30T06:54:34;7.38;;;5.47;;
58360;SDS011;44164;44.954;10.068;2024-01-30T06:57:00;7.75;;;5.85;;
58360;SDS011;44164;44.954;10.068;2024-01-30T06:59:26;6.63;;;5.68;;
58360;SDS011;44164;44.954;10.068;2024-01-30T07:01:52;8.30;;;5.55;;
58360;SDS011;44164;44.954;10.068;2024-01-30T07:04:19;5.63;;;4.90;;
58360;SDS011;44164;44.954;10.068;2024-01-30T07:06:45;12.73;;;4.80;;
58360;SDS011;44164;44.954;10.068;2024-01-30T07:09:12;9.10;;;5.43;;
58360;SDS011;44164;44.954;10.068;2024-01-30T07:11:39;5.60;;;4.72;;
58360;SDS011;44164;44.954;10.068;2024-01-30T07:14:05;6.90;;;4.50;;
58360;SDS011;44164;44.954;10.068;2024-01-30T07:16:31;5.22;;;4.70;;
58360;SDS011;44164;44.954;10.068;2024-01-30T07:18:57;5.13;;;4.38;;
58360;SDS011;44164;44.954;10.068;2024-01-30T07:21:24;5.57;;;4.60;;
58360;SDS011;44164;44.954;10.068;2024-01-30T07:23:54;4.90;;;4.40;;
58360;SDS011;44164;44.954;10.068;2024-01-30T07:26:21;5.20;;;4.70;;
58360;SDS011;44164;44.954;10.068;2024-01-30T07:28:47;4.90;;;4.40;;
58360;SDS011;44164;44.954;10.068;2024-01-30T07:31:13;5.72;;;3.88;;
58360;SDS011;44164;44.954;10.068;2024-01-30T07:33:39;4.40;;;3.88;;
58360;SDS011;44164;44.954;10.068;2024-01-30T07:36:06;5.88;;;3.92;;
58360;SDS011;44164;44.954;10.068;2024-01-30T07:38:32;4.10;;;3.60;;
58360;SDS011;44164;44.954;10.068;2024-01-30T07:40:58;4.43;;;3.97;;
58360;SDS011;44164;44.954;10.068;2024-01-30T07:43:24;4.40;;;4.00;;
58360;SDS011;44164;44.954;10.068;2024-01-30T07:45:51;4.18;;;3.78;;
58360;SDS011;44164;44.954;10.068;2024-01-30T07:48:17;3.92;;;3.53;;
58360;SDS011;44164;44.954;10.068;2024-01-30T07:50:43;4.57;;;4.18;;
58360;SDS011;44164;44.954;10.068;2024-01-30T07:53:09;5.60;;;3.97;;
58360;SDS011;44164;44.954;10.068;2024-01-30T07:55:35;4.10;;;2.80;;
58360;SDS011;44164;44.954;10.068;2024-01-30T07:58:01;4.15;;;3.72;;
58360;SDS011;44164;44.954;10.068;2024-01-30T08:00:29;8.60;;;3.83;;
58360;SDS011;44164;44.954;10.068;2024-01-30T08:02:56;6.45;;;4.00;;
58360;SDS011;44164;44.954;10.068;2024-01-30T08:05:22;4.57;;;3.83;;
58360;SDS011;44164;44.954;10.068;2024-01-30T08:07:49;4.22;;;3.83;;
58360;SDS011;44164;44.954;10.068;2024-01-30T08:10:15;3.83;;;3.30;;
58360;SDS011;44164;44.954;10.068;2024-01-30T08:12:41;3.40;;;3.10;;
58360;SDS011;44164;44.954;10.068;2024-01-30T08:15:08;4.68;;;3.97;;
58360;SDS011;44164;44.954;10.068;2024-01-30T08:17:34;3.72;;;3.33;;
58360;SDS011;44164;44.954;10.068;2024-01-30T08:20:00;4.10;;;3.55;;
58360;SDS011;44164;44.954;10.068;2024-01-30T08:22:26;3.92;;;3.40;;
58360;SDS011;44164;44.954;10.068;2024-01-30T08:24:53;5.03;;;3.75;;
58360;SDS011;44164;44.954;10.068;2024-01-30T08:27:19;3.80;;;3.40;;
58360;SDS011;44164;44.954;10.068;2024-01-30T08:29:45;3.95;;;3.55;;
58360;SDS011;44164;44.954;10.068;2024-01-30T08:32:11;4.43;;;4.03;;
58360;SDS011;44164;44.954;10.068;2024-01-30T08:34:37;4.15;;;3.72;;
58360;SDS011;44164;44.954;10.068;2024-01-30T08:37:03;4.65;;;3.90;;
58360;SDS011;44164;44.954;10.068;2024-01-30T08:39:30;3.65;;;3.10;;
58360;SDS011;44164;44.954;10.068;2024-01-30T08:41:56;4.05;;;3.47;;
58360;SDS011;44164;44.954;10.068;2024-01-30T08:44:22;3.83;;;3.40;;
58360;SDS011;44164;44.954;10.068;2024-01-30T08:46:48;4.75;;;3.58;;
58360;SDS011;44164;44.954;10.068;2024-01-30T08:49:16;4.80;;;3.80;;
58360;SDS011;44164;44.954;10.068;2024-01-30T08:51:42;4.55;;;3.55;;
58360;SDS011;44164;44.954;10.068;2024-01-30T08:54:08;3.85;;;3.38;;
58360;SDS011;44164;44.954;10.068;2024-01-30T08:56:35;4.25;;;3.70;;
58360;SDS011;44164;44.954;10.068;2024-01-30T08:59:01;4.53;;;4.00;;
58360;SDS011;44164;44.954;10.068;2024-01-30T09:01:27;4.55;;;3.88;;
58360;SDS011;44164;44.954;10.068;2024-01-30T09:03:53;4.13;;;3.63;;
58360;SDS011;44164;44.954;10.068;2024-01-30T09:06:19;3.53;;;2.95;;
58360;SDS011;44164;44.954;10.068;2024-01-30T09:08:45;4.43;;;3.45;;
58360;SDS011;44164;44.954;10.068;2024-01-30T09:11:12;4.43;;;3.65;;
58360;SDS011;44164;44.954;10.068;2024-01-30T09:13:38;4.78;;;3.40;;
58360;SDS011;44164;44.954;10.068;2024-01-30T09:16:05;4.03;;;3.47;;
58360;SDS011;44164;44.954;10.068;2024-01-30T09:18:32;5.97;;;3.70;;
58360;SDS011;44164;44.954;10.068;2024-01-30T09:20:58;4.00;;;3.50;;
58360;SDS011;44164;44.954;10.068;2024-01-30T09:23:24;4.60;;;3.10;;
58360;SDS011;44164;44.954;10.068;2024-01-30T09:25:51;5.03;;;3.42;;
58360;SDS011;44164;44.954;10.068;2024-01-30T09:28:17;4.10;;;3.50;;
58360;SDS011;44164;44.954;10.068;2024-01-30T09:30:43;4.50;;;3.88;;
58360;SDS011;44164;44.954;10.068;2024-01-30T09:33:09;4.45;;;3.78;;
58360;SDS011;44164;44.954;10.068;2024-01-30T09:35:36;5.03;;;3.55;;
58360;SDS011;44164;44.954;10.068;2024-01-30T09:38:02;5.07;;;3.50;;
58360;SDS011;44164;44.954;10.068;2024-01-30T09:40:28;4.85;;;3.50;;
58360;SDS011;44164;44.954;10.068;2024-01-30T09:42:55;4.53;;;3.67;;
58360;SDS011;44164;44.954;10.068;2024-01-30T09:45:24;4.25;;;3.70;;
58360;SDS011;44164;44.954;10.068;2024-01-30T09:47:50;4.47;;;3.78;;
58360;SDS011;44164;44.954;10.068;2024-01-30T09:50:17;5.07;;;3.95;;
58360;SDS011;44164;44.954;10.068;2024-01-30T09:52:44;4.13;;;3.72;;
58360;SDS011;44164;44.954;10.068;2024-01-30T09:55:11;4.70;;;4.20;;
58360;SDS011;44164;44.954;10.068;2024-01-30T09:57:37;4.85;;;3.90;;
58360;SDS011;44164;44.954;10.068;2024-01-30T10:00:03;4.70;;;3.92;;
58360;SDS011;44164;44.954;10.068;2024-01-30T10:02:38;5.55;;;4.30;;
58360;SDS011;44164;44.954;10.068;2024-01-30T10:05:05;5.75;;;4.47;;
58360;SDS011;44164;44.954;10.068;2024-01-30T10:07:31;5.72;;;4.68;;
58360;SDS011;44164;44.954;10.068;2024-01-30T10:09:57;6.32;;;4.38;;
58360;SDS011;44164;44.954;10.068;2024-01-30T10:12:26;6.75;;;5.13;;
58360;SDS011;44164;44.954;10.068;2024-01-30T10:14:53;6.22;;;4.75;;
58360;SDS011;44164;44.954;10.068;2024-01-30T10:17:19;5.75;;;4.63;;
58360;SDS011;44164;44.954;10.068;2024-01-30T10:19:46;6.03;;;5.28;;
58360;SDS011;44164;44.954;10.068;2024-01-30T10:22:13;6.07;;;4.65;;
58360;SDS011;44164;44.954;10.068;2024-01-30T10:24:39;6.38;;;4.82;;
58360;SDS011;44164;44.954;10.068;2024-01-30T10:27:06;5.65;;;4.97;;
58360;SDS011;44164;44.954;10.068;2024-01-30T10:29:32;7.57;;;4.93;;
58360;SDS011;44164;44.954;10.068;2024-01-30T10:31:59;6.63;;;5.50;;
58360;SDS011;44164;44.954;10.068;2024-01-30T10:34:29;6.85;;;5.43;;
58360;SDS011;44164;44.954;10.068;2024-01-30T10:37:00;6.03;;;5.20;;
58360;SDS011;44164;44.954;10.068;2024-01-30T10:39:41;6.63;;;5.43;;
58360;SDS011;44164;44.954;10.068;2024-01-30T10:42:17;7.28;;;5.43;;
58360;SDS011;44164;44.954;10.068;2024-01-30T10:44:57;6.82;;;5.43;;
58360;SDS011;44164;44.954;10.068;2024-01-30T10:47:27;6.43;;;5.70;;
58360;SDS011;44164;44.954;10.068;2024-01-30T10:49:55;9.03;;;6.30;;
58360;SDS011;44164;44.954;10.068;2024-01-30T10:52:22;9.05;;;6.57;;
58360;SDS011;44164;44.954;10.068;2024-01-30T10:54:53;7.70;;;5.93;;
58360;SDS011;44164;44.954;10.068;2024-01-30T10:57:20;7.53;;;6.32;;
58360;SDS011;44164;44.954;10.068;2024-01-30T10:59:55;8.85;;;5.82;;
58360;SDS011;44164;44.954;10.068;2024-01-30T11:02:23;7.55;;;6.40;;
58360;SDS011;44164;44.954;10.068;2024-01-30T11:04:49;7.75;;;5.85;;
58360;SDS011;44164;44.954;10.068;2024-01-30T11:07:16;5.90;;;5.28;;
58360;SDS011;44164;44.954;10.068;2024-01-30T11:09:53;7.88;;;6.07;;
58360;SDS011;44164;44.954;10.068;2024-01-30T11:12:26;8.40;;;6.25;;
58360;SDS011;44164;44.954;10.068;2024-01-30T11:15:06;7.53;;;5.60;;
58360;SDS011;44164;44.954;10.068;2024-01-30T11:17:42;7.60;;;6.22;;
58360;SDS011;44164;44.954;10.068;2024-01-30T11:20:22;7.13;;;5.60;;
58360;SDS011;44164;44.954;10.068;2024-01-30T11:22:52;8.25;;;6.30;;
58360;SDS011;44164;44.954;10.068;2024-01-30T11:25:20;8.40;;;6.45;;
58360;SDS011;44164;44.954;10.068;2024-01-30T11:27:49;8.40;;;5.97;;
58360;SDS011;44164;44.954;10.068;2024-01-30T11:30:22;7.35;;;5.40;;
58360;SDS011;44164;44.954;10.068;2024-01-30T11:32:58;6.57;;;5.95;;
58360;SDS011;44164;44.954;10.068;2024-01-30T11:35:33;5.88;;;5.10;;
58360;SDS011;44164;44.954;10.068;2024-01-30T11:38:00;6.20;;;5.60;;
58360;SDS011;44164;44.954;10.068;2024-01-30T11:40:28;6.85;;;6.15;;
58360;SDS011;44164;44.954;10.068;2024-01-30T11:42:56;6.97;;;5.70;;
58360;SDS011;44164;44.954;10.068;2024-01-30T11:45:22;5.57;;;4.97;;
58360;SDS011;44164;44.954;10.068;2024-01-30T11:47:48;7.22;;;6.10;;
58360;SDS011;44164;44.954;10.068;2024-01-30T11:50:15;6.13;;;5.03;;
58360;SDS011;44164;44.954;10.068;2024-01-30T11:52:41;6.40;;;5.72;;
58360;SDS011;44164;44.954;10.068;2024-01-30T11:55:09;5.75;;;5.15;;
58360;SDS011;44164;44.954;10.068;2024-01-30T11:57:36;7.10;;;5.57;;
58360;SDS011;44164;44.954;10.068;2024-01-30T12:00:03;6.93;;;5.70;;
58360;SDS011;44164;44.954;10.068;2024-01-30T12:02:36;6.75;;;6.00;;
58360;SDS011;44164;44.954;10.068;2024-01-30T12:05:04;12.48;;;7.50;;
58360;SDS011;44164;44.954;10.068;2024-01-30T12:07:30;9.55;;;6.65;;
58360;SDS011;44164;44.954;10.068;2024-01-30T12:09:57;7.75;;;6.47;;
58360;SDS011;44164;44.954;10.068;2024-01-30T12:12:26;7.43;;;5.78;;
58360;SDS011;44164;44.954;10.068;2024-01-30T12:14:53;7.07;;;5.85;;
58360;SDS011;44164;44.954;10.068;2024-01-30T12:20:41;6.50;;;5.65;;
58360;SDS011;44164;44.954;10.068;2024-01-30T12:22:45;7.57;;;5.25;;
58360;SDS011;44164;44.954;10.068;2024-01-30T12:25:15;6.72;;;5.43;;
58360;SDS011;44164;44.954;10.068;2024-01-30T12:27:42;7.68;;;5.53;;
58360;SDS011;44164;44.954;10.068;2024-01-30T12:30:10;7.18;;;5.45;;
58360;SDS011;44164;44.954;10.068;2024-01-30T12:32:39;7.63;;;5.47;;
58360;SDS011;44164;44.954;10.068;2024-01-30T12:35:15;7.13;;;5.15;;
58360;SDS011;44164;44.954;10.068;2024-01-30T12:37:43;6.80;;;5.28;;
58360;SDS011;44164;44.954;10.068;2024-01-30T12:40:10;7.85;;;5.20;;
58360;SDS011;44164;44.954;10.068;2024-01-30T12:42:39;8.65;;;5.38;;
58360;SDS011;44164;44.954;10.068;2024-01-30T12:45:05;5.75;;;4.93;;
58360;SDS011;44164;44.954;10.068;2024-01-30T12:47:32;7.93;;;4.95;;
58360;SDS011;44164;44.954;10.068;2024-01-30T12:49:58;7.82;;;6.10;;
58360;SDS011;44164;44.954;10.068;2024-01-30T12:52:24;5.95;;;5.20;;
58360;SDS011;44164;44.954;10.068;2024-01-30T12:54:50;8.68;;;5.50;;
58360;SDS011;44164;44.954;10.068;2024-01-30T12:57:17;6.93;;;5.22;;
58360;SDS011;44164;44.954;10.068;2024-01-30T12:59:44;6.75;;;5.35;;
58360;SDS011;44164;44.954;10.068;2024-01-30T13:02:12;6.93;;;5.67;;
58360;SDS011;44164;44.954;10.068;2024-01-30T13:04:39;5.87;;;4.67;;
58360;SDS011;44164;44.954;10.068;2024-01-30T13:07:05;6.40;;;5.72;;
58360;SDS011;44164;44.954;10.068;2024-01-30T13:09:31;6.50;;;5.47;;
58360;SDS011;44164;44.954;10.068;2024-01-30T13:11:58;6.18;;;4.90;;
58360;SDS011;44164;44.954;10.068;2024-01-30T13:14:25;6.93;;;6.03;;
58360;SDS011;44164;44.954;10.068;2024-01-30T13:16:51;7.50;;;5.85;;
58360;SDS011;44164;44.954;10.068;2024-01-30T13:19:18;6.88;;;5.45;;
58360;SDS011;44164;44.954;10.068;2024-01-30T13:21:44;8.32;;;5.57;;
58360;SDS011;44164;44.954;10.068;2024-01-30T13:24:11;8.32;;;5.47;;
58360;SDS011;44164;44.954;10.068;2024-01-30T13:26:37;9.27;;;5.28;;
58360;SDS011;44164;44.954;10.068;2024-01-30T13:29:03;6.90;;;4.80;;
58360;SDS011;44164;44.954;10.068;2024-01-30T13:31:29;7.18;;;5.80;;
58360;SDS011;44164;44.954;10.068;2024-01-30T13:33:55;6.22;;;5.22;;
58360;SDS011;44164;44.954;10.068;2024-01-30T13:36:22;6.57;;;5.50;;
58360;SDS011;44164;44.954;10.068;2024-01-30T13:38:48;8.90;;;5.90;;
58360;SDS011;44164;44.954;10.068;2024-01-30T13:41:14;8.02;;;5.75;;
58360;SDS011;44164;44.954;10.068;2024-01-30T13:43:43;6.80;;;5.40;;
58360;SDS011;44164;44.954;10.068;2024-01-30T13:46:10;7.85;;;5.97;;
58360;SDS011;44164;44.954;10.068;2024-01-30T13:48:36;7.20;;;5.80;;
58360;SDS011;44164;44.954;10.068;2024-01-30T13:51:02;6.60;;;5.43;;
58360;SDS011;44164;44.954;10.068;2024-01-30T13:53:28;6.82;;;5.45;;
58360;SDS011;44164;44.954;10.068;2024-01-30T13:55:55;6.60;;;5.22;;
58360;SDS011;44164;44.954;10.068;2024-01-30T13:58:21;6.90;;;5.60;;
58360;SDS011;44164;44.954;10.068;2024-01-30T14:00:47;6.75;;;5.22;;
58360;SDS011;44164;44.954;10.068;2024-01-30T14:03:13;6.82;;;5.70;;
58360;SDS011;44164;44.954;10.068;2024-01-30T14:05:39;5.60;;;5.00;;
58360;SDS011;44164;44.954;10.068;2024-01-30T14:08:06;6.00;;;5.00;;
58360;SDS011;44164;44.954;10.068;2024-01-30T14:13:00;7.93;;;5.88;;
58360;SDS011;44164;44.954;10.068;2024-01-30T14:15:26;5.93;;;5.32;;
58360;SDS011;44164;44.954;10.068;2024-01-30T14:17:52;5.90;;;4.88;;
58360;SDS011;44164;44.954;10.068;2024-01-30T14:20:18;6.95;;;5.22;;
58360;SDS011;44164;44.954;10.068;2024-01-30T14:22:45;8.90;;;4.93;;
58360;SDS011;44164;44.954;10.068;2024-01-30T14:25:11;5.32;;;4.65;;
58360;SDS011;44164;44.954;10.068;2024-01-30T14:27:38;5.35;;;4.85;;
58360;SDS011;44164;44.954;10.068;2024-01-30T14:30:04;7.32;;;5.43;;
58360;SDS011;44164;44.954;10.068;2024-01-30T14:32:31;5.70;;;4.97;;
58360;SDS011;44164;44.954;10.068;2024-01-30T14:34:57;6.82;;;5.15;;
58360;SDS011;44164;44.954;10.068;2024-01-30T14:37:23;5.80;;;5.20;;
58360;SDS011;44164;44.954;10.068;2024-01-30T14:39:49;5.95;;;5.13;;